Terminal Aerodrome Forecast
Issued by NWS

Current Version | Previous Version | Text Only | Print | Product List | Glossary On
Versions: 1 2 3 4 5 6 7 8 9 10 11 12 13 14 15 16 17 18 19 20 21 22 23 24 25 26 27 28 29 30 31 32 33 34 35 36 37 38 39 40 41 42 43 44 45 46 47 48 49 50
000
FTUS41 KOKX 210949 AAG
TAFTEB
TAF AMD
KTEB 210949Z 2110/2212 VRB03KT 3/4SM BR OVC002
      TEMPO 2110/2111 1/2SM FG
     FM211400 18004KT 2SM BR OVC006
     FM211600 19006KT P6SM BKN015
     FM211800 20007KT P6SM BKN025
     FM212000 19007KT P6SM BKN035
     FM220500 19002KT 6SM BR SCT008 BKN040=

USA.gov is the U.S. government's official web portal to all federal, state and local government web resources and services.